sensor_id;sensor_type;location;lat;lon;timestamp;P1;durP1;ratioP1;P2;durP2;ratioP2
19189;SDS011;9727;50.200;19.038;2023-03-31T00:00:56;32.27;;;20.07;;
19189;SDS011;9727;50.200;19.038;2023-03-31T00:03:24;30.73;;;20.77;;
19189;SDS011;9727;50.200;19.038;2023-03-31T00:05:55;30.23;;;21.40;;
19189;SDS011;9727;50.200;19.038;2023-03-31T00:08:22;33.43;;;20.80;;
19189;SDS011;9727;50.200;19.038;2023-03-31T00:10:49;34.37;;;22.00;;
19189;SDS011;9727;50.200;19.038;2023-03-31T00:13:16;32.87;;;20.83;;
19189;SDS011;9727;50.200;19.038;2023-03-31T00:15:42;32.00;;;22.60;;
19189;SDS011;9727;50.200;19.038;2023-03-31T00:18:10;30.03;;;21.40;;
19189;SDS011;9727;50.200;19.038;2023-03-31T00:20:36;35.67;;;21.03;;
19189;SDS011;9727;50.200;19.038;2023-03-31T00:23:14;31.80;;;20.63;;
19189;SDS011;9727;50.200;19.038;2023-03-31T00:25:40;33.67;;;21.07;;
19189;SDS011;9727;50.200;19.038;2023-03-31T00:28:09;32.50;;;20.17;;
19189;SDS011;9727;50.200;19.038;2023-03-31T00:30:36;30.60;;;20.00;;
19189;SDS011;9727;50.200;19.038;2023-03-31T00:33:05;31.47;;;20.47;;
19189;SDS011;9727;50.200;19.038;2023-03-31T00:35:33;26.17;;;19.13;;
19189;SDS011;9727;50.200;19.038;2023-03-31T00:38:04;29.37;;;19.50;;
19189;SDS011;9727;50.200;19.038;2023-03-31T00:40:34;28.70;;;20.07;;
19189;SDS011;9727;50.200;19.038;2023-03-31T00:43:01;30.33;;;19.47;;
19189;SDS011;9727;50.200;19.038;2023-03-31T00:45:28;29.43;;;20.43;;
19189;SDS011;9727;50.200;19.038;2023-03-31T00:47:57;31.20;;;21.03;;
19189;SDS011;9727;50.200;19.038;2023-03-31T00:50:29;30.63;;;19.77;;
19189;SDS011;9727;50.200;19.038;2023-03-31T00:52:57;33.17;;;21.03;;
19189;SDS011;9727;50.200;19.038;2023-03-31T00:55:29;30.80;;;21.63;;
19189;SDS011;9727;50.200;19.038;2023-03-31T00:57:57;29.57;;;21.90;;
19189;SDS011;9727;50.200;19.038;2023-03-31T01:00:26;31.37;;;21.90;;
19189;SDS011;9727;50.200;19.038;2023-03-31T01:02:55;30.03;;;21.13;;
19189;SDS011;9727;50.200;19.038;2023-03-31T01:05:24;34.87;;;21.40;;
19189;SDS011;9727;50.200;19.038;2023-03-31T01:07:51;32.10;;;22.50;;
19189;SDS011;9727;50.200;19.038;2023-03-31T01:10:19;32.17;;;21.43;;
19189;SDS011;9727;50.200;19.038;2023-03-31T01:12:47;33.07;;;21.53;;
19189;SDS011;9727;50.200;19.038;2023-03-31T01:15:16;32.67;;;21.80;;
19189;SDS011;9727;50.200;19.038;2023-03-31T01:17:43;30.97;;;21.57;;
19189;SDS011;9727;50.200;19.038;2023-03-31T01:20:13;33.37;;;21.27;;
19189;SDS011;9727;50.200;19.038;2023-03-31T01:22:45;30.93;;;22.07;;
19189;SDS011;9727;50.200;19.038;2023-03-31T01:28:19;28.83;;;20.00;;
19189;SDS011;9727;50.200;19.038;2023-03-31T01:33:48;29.77;;;19.70;;
19189;SDS011;9727;50.200;19.038;2023-03-31T01:36:30;30.03;;;20.63;;
19189;SDS011;9727;50.200;19.038;2023-03-31T01:41:54;28.57;;;20.73;;
19189;SDS011;9727;50.200;19.038;2023-03-31T01:44:24;30.03;;;21.90;;
19189;SDS011;9727;50.200;19.038;2023-03-31T01:46:54;28.57;;;21.13;;
19189;SDS011;9727;50.200;19.038;2023-03-31T01:49:23;27.43;;;20.53;;
19189;SDS011;9727;50.200;19.038;2023-03-31T01:51:52;26.47;;;19.83;;
19189;SDS011;9727;50.200;19.038;2023-03-31T01:54:21;30.43;;;20.50;;
19189;SDS011;9727;50.200;19.038;2023-03-31T01:56:51;25.97;;;18.87;;
19189;SDS011;9727;50.200;19.038;2023-03-31T01:59:23;25.00;;;17.73;;
19189;SDS011;9727;50.200;19.038;2023-03-31T02:01:51;27.17;;;18.30;;
19189;SDS011;9727;50.200;19.038;2023-03-31T02:04:21;24.97;;;17.80;;
19189;SDS011;9727;50.200;19.038;2023-03-31T02:06:50;25.03;;;18.63;;
19189;SDS011;9727;50.200;19.038;2023-03-31T02:09:23;26.83;;;18.57;;
19189;SDS011;9727;50.200;19.038;2023-03-31T02:11:52;25.40;;;17.50;;
19189;SDS011;9727;50.200;19.038;2023-03-31T02:14:21;25.10;;;18.47;;
19189;SDS011;9727;50.200;19.038;2023-03-31T02:16:51;23.67;;;17.80;;
19189;SDS011;9727;50.200;19.038;2023-03-31T02:19:22;25.50;;;18.63;;
19189;SDS011;9727;50.200;19.038;2023-03-31T02:21:50;24.83;;;17.97;;
19189;SDS011;9727;50.200;19.038;2023-03-31T02:24:20;26.00;;;18.47;;
19189;SDS011;9727;50.200;19.038;2023-03-31T02:26:50;28.27;;;19.17;;
19189;SDS011;9727;50.200;19.038;2023-03-31T02:29:17;24.80;;;18.50;;
19189;SDS011;9727;50.200;19.038;2023-03-31T02:31:45;27.30;;;19.10;;
19189;SDS011;9727;50.200;19.038;2023-03-31T02:34:15;24.97;;;18.80;;
19189;SDS011;9727;50.200;19.038;2023-03-31T02:36:42;29.40;;;19.13;;
19189;SDS011;9727;50.200;19.038;2023-03-31T02:39:10;27.03;;;19.50;;
19189;SDS011;9727;50.200;19.038;2023-03-31T02:41:44;25.30;;;18.27;;
19189;SDS011;9727;50.200;19.038;2023-03-31T02:44:10;23.33;;;17.70;;
19189;SDS011;9727;50.200;19.038;2023-03-31T02:46:40;23.17;;;17.43;;
19189;SDS011;9727;50.200;19.038;2023-03-31T02:49:07;24.70;;;17.43;;
19189;SDS011;9727;50.200;19.038;2023-03-31T02:51:45;21.63;;;15.70;;
19189;SDS011;9727;50.200;19.038;2023-03-31T02:54:20;23.67;;;17.63;;
19189;SDS011;9727;50.200;19.038;2023-03-31T02:56:55;27.43;;;16.07;;
19189;SDS011;9727;50.200;19.038;2023-03-31T02:59:32;22.93;;;16.33;;
19189;SDS011;9727;50.200;19.038;2023-03-31T03:02:06;21.27;;;15.50;;
19189;SDS011;9727;50.200;19.038;2023-03-31T03:04:41;19.27;;;14.27;;
19189;SDS011;9727;50.200;19.038;2023-03-31T03:07:18;19.50;;;14.63;;
19189;SDS011;9727;50.200;19.038;2023-03-31T03:09:50;23.97;;;14.57;;
19189;SDS011;9727;50.200;19.038;2023-03-31T03:12:20;19.43;;;15.00;;
19189;SDS011;9727;50.200;19.038;2023-03-31T03:15:06;22.13;;;14.20;;
19189;SDS011;9727;50.200;19.038;2023-03-31T03:17:36;18.13;;;13.20;;
19189;SDS011;9727;50.200;19.038;2023-03-31T03:20:06;16.93;;;12.13;;
19189;SDS011;9727;50.200;19.038;2023-03-31T03:22:41;20.23;;;12.73;;
19189;SDS011;9727;50.200;19.038;2023-03-31T03:25:08;21.40;;;12.63;;
19189;SDS011;9727;50.200;19.038;2023-03-31T03:27:35;16.80;;;13.23;;
19189;SDS011;9727;50.200;19.038;2023-03-31T03:30:07;19.37;;;13.40;;
19189;SDS011;9727;50.200;19.038;2023-03-31T03:32:43;23.03;;;15.60;;
19189;SDS011;9727;50.200;19.038;2023-03-31T03:35:10;21.27;;;16.03;;
19189;SDS011;9727;50.200;19.038;2023-03-31T03:37:38;23.03;;;16.67;;
19189;SDS011;9727;50.200;19.038;2023-03-31T03:40:08;25.07;;;18.47;;
19189;SDS011;9727;50.200;19.038;2023-03-31T03:42:35;25.57;;;19.97;;
19189;SDS011;9727;50.200;19.038;2023-03-31T03:45:04;26.30;;;20.00;;
19189;SDS011;9727;50.200;19.038;2023-03-31T03:47:31;25.27;;;19.03;;
19189;SDS011;9727;50.200;19.038;2023-03-31T03:49:58;26.67;;;19.23;;
19189;SDS011;9727;50.200;19.038;2023-03-31T03:52:24;26.07;;;19.17;;
19189;SDS011;9727;50.200;19.038;2023-03-31T03:54:51;30.90;;;22.97;;
19189;SDS011;9727;50.200;19.038;2023-03-31T03:57:19;32.80;;;24.17;;
19189;SDS011;9727;50.200;19.038;2023-03-31T03:59:46;33.13;;;25.10;;
19189;SDS011;9727;50.200;19.038;2023-03-31T04:02:13;32.33;;;24.07;;
19189;SDS011;9727;50.200;19.038;2023-03-31T04:04:39;31.27;;;23.67;;
19189;SDS011;9727;50.200;19.038;2023-03-31T04:07:06;31.20;;;21.20;;
19189;SDS011;9727;50.200;19.038;2023-03-31T04:09:32;31.27;;;21.23;;
19189;SDS011;9727;50.200;19.038;2023-03-31T04:11:59;24.73;;;18.70;;
19189;SDS011;9727;50.200;19.038;2023-03-31T04:14:27;28.97;;;19.37;;
19189;SDS011;9727;50.200;19.038;2023-03-31T04:16:54;28.33;;;18.60;;
19189;SDS011;9727;50.200;19.038;2023-03-31T04:19:22;25.00;;;17.90;;
19189;SDS011;9727;50.200;19.038;2023-03-31T04:21:50;24.80;;;17.57;;
19189;SDS011;9727;50.200;19.038;2023-03-31T04:24:22;24.80;;;18.87;;
19189;SDS011;9727;50.200;19.038;2023-03-31T04:26:54;25.00;;;17.80;;
19189;SDS011;9727;50.200;19.038;2023-03-31T04:29:21;25.30;;;18.03;;
19189;SDS011;9727;50.200;19.038;2023-03-31T04:31:52;27.47;;;18.43;;
19189;SDS011;9727;50.200;19.038;2023-03-31T04:34:23;28.70;;;20.23;;
19189;SDS011;9727;50.200;19.038;2023-03-31T04:36:51;32.53;;;21.87;;
19189;SDS011;9727;50.200;19.038;2023-03-31T04:39:20;33.83;;;21.77;;
19189;SDS011;9727;50.200;19.038;2023-03-31T04:41:51;34.27;;;23.37;;
19189;SDS011;9727;50.200;19.038;2023-03-31T04:44:17;31.10;;;23.10;;
19189;SDS011;9727;50.200;19.038;2023-03-31T04:46:44;34.73;;;24.10;;
19189;SDS011;9727;50.200;19.038;2023-03-31T04:49:12;36.50;;;24.90;;
19189;SDS011;9727;50.200;19.038;2023-03-31T04:51:39;35.17;;;26.10;;
19189;SDS011;9727;50.200;19.038;2023-03-31T04:54:05;35.23;;;25.43;;
19189;SDS011;9727;50.200;19.038;2023-03-31T04:56:32;36.23;;;25.20;;
19189;SDS011;9727;50.200;19.038;2023-03-31T04:59:02;33.90;;;25.33;;
19189;SDS011;9727;50.200;19.038;2023-03-31T05:01:32;40.43;;;26.63;;
19189;SDS011;9727;50.200;19.038;2023-03-31T05:04:00;34.43;;;24.73;;
19189;SDS011;9727;50.200;19.038;2023-03-31T05:06:28;35.03;;;25.67;;
19189;SDS011;9727;50.200;19.038;2023-03-31T05:08:55;40.33;;;24.73;;
19189;SDS011;9727;50.200;19.038;2023-03-31T05:11:22;34.83;;;23.77;;
19189;SDS011;9727;50.200;19.038;2023-03-31T05:13:48;33.87;;;24.67;;
19189;SDS011;9727;50.200;19.038;2023-03-31T05:16:15;32.60;;;24.33;;
19189;SDS011;9727;50.200;19.038;2023-03-31T05:18:44;36.80;;;25.97;;
19189;SDS011;9727;50.200;19.038;2023-03-31T05:21:12;33.73;;;23.50;;
19189;SDS011;9727;50.200;19.038;2023-03-31T05:23:41;32.40;;;23.13;;
19189;SDS011;9727;50.200;19.038;2023-03-31T05:26:08;32.17;;;23.17;;
19189;SDS011;9727;50.200;19.038;2023-03-31T05:28:35;31.47;;;22.77;;
19189;SDS011;9727;50.200;19.038;2023-03-31T05:31:03;33.83;;;22.47;;
19189;SDS011;9727;50.200;19.038;2023-03-31T05:33:31;29.33;;;21.10;;
19189;SDS011;9727;50.200;19.038;2023-03-31T05:35:58;26.63;;;20.60;;
19189;SDS011;9727;50.200;19.038;2023-03-31T05:38:25;32.67;;;22.03;;
19189;SDS011;9727;50.200;19.038;2023-03-31T05:40:54;30.90;;;21.97;;
19189;SDS011;9727;50.200;19.038;2023-03-31T05:43:21;32.10;;;23.20;;
19189;SDS011;9727;50.200;19.038;2023-03-31T05:45:52;29.43;;;22.40;;
19189;SDS011;9727;50.200;19.038;2023-03-31T05:48:21;31.30;;;23.07;;
19189;SDS011;9727;50.200;19.038;2023-03-31T05:50:48;29.93;;;22.30;;
19189;SDS011;9727;50.200;19.038;2023-03-31T05:53:15;29.30;;;20.93;;
19189;SDS011;9727;50.200;19.038;2023-03-31T05:55:41;29.03;;;19.13;;
19189;SDS011;9727;50.200;19.038;2023-03-31T05:58:09;26.20;;;18.97;;
19189;SDS011;9727;50.200;19.038;2023-03-31T06:00:36;23.03;;;17.23;;
19189;SDS011;9727;50.200;19.038;2023-03-31T06:03:05;26.77;;;18.60;;
19189;SDS011;9727;50.200;19.038;2023-03-31T06:05:33;27.03;;;18.90;;
19189;SDS011;9727;50.200;19.038;2023-03-31T06:08:00;22.73;;;16.30;;
19189;SDS011;9727;50.200;19.038;2023-03-31T06:10:28;23.57;;;14.53;;
19189;SDS011;9727;50.200;19.038;2023-03-31T06:12:54;19.17;;;12.83;;
19189;SDS011;9727;50.200;19.038;2023-03-31T06:15:22;19.97;;;14.17;;
19189;SDS011;9727;50.200;19.038;2023-03-31T06:17:49;16.67;;;11.33;;
19189;SDS011;9727;50.200;19.038;2023-03-31T06:20:15;17.37;;;12.03;;
19189;SDS011;9727;50.200;19.038;2023-03-31T06:22:42;15.40;;;11.10;;
19189;SDS011;9727;50.200;19.038;2023-03-31T06:25:09;15.57;;;10.77;;
19189;SDS011;9727;50.200;19.038;2023-03-31T06:27:36;14.67;;;10.40;;
19189;SDS011;9727;50.200;19.038;2023-03-31T06:30:07;16.47;;;9.40;;
19189;SDS011;9727;50.200;19.038;2023-03-31T06:32:36;17.47;;;9.47;;
19189;SDS011;9727;50.200;19.038;2023-03-31T06:35:12;12.30;;;8.63;;
19189;SDS011;9727;50.200;19.038;2023-03-31T06:37:48;13.40;;;8.80;;
19189;SDS011;9727;50.200;19.038;2023-03-31T06:40:16;14.57;;;9.07;;
19189;SDS011;9727;50.200;19.038;2023-03-31T06:42:42;14.33;;;8.70;;
19189;SDS011;9727;50.200;19.038;2023-03-31T06:45:09;10.67;;;8.20;;
19189;SDS011;9727;50.200;19.038;2023-03-31T06:47:40;14.20;;;8.93;;
19189;SDS011;9727;50.200;19.038;2023-03-31T06:50:08;13.70;;;8.97;;
19189;SDS011;9727;50.200;19.038;2023-03-31T06:52:35;15.67;;;9.20;;
19189;SDS011;9727;50.200;19.038;2023-03-31T06:55:02;13.27;;;8.77;;
19189;SDS011;9727;50.200;19.038;2023-03-31T06:57:29;13.73;;;8.60;;
19189;SDS011;9727;50.200;19.038;2023-03-31T06:59:58;18.00;;;8.27;;
19189;SDS011;9727;50.200;19.038;2023-03-31T07:02:24;11.83;;;7.43;;
19189;SDS011;9727;50.200;19.038;2023-03-31T07:04:52;12.53;;;6.83;;
19189;SDS011;9727;50.200;19.038;2023-03-31T07:07:19;10.20;;;6.80;;
19189;SDS011;9727;50.200;19.038;2023-03-31T07:09:46;11.30;;;6.87;;
19189;SDS011;9727;50.200;19.038;2023-03-31T07:12:21;10.57;;;5.77;;
19189;SDS011;9727;50.200;19.038;2023-03-31T07:14:48;11.10;;;6.17;;
19189;SDS011;9727;50.200;19.038;2023-03-31T07:17:15;12.90;;;6.00;;
19189;SDS011;9727;50.200;19.038;2023-03-31T07:19:41;13.77;;;6.87;;
19189;SDS011;9727;50.200;19.038;2023-03-31T07:22:13;12.27;;;6.00;;
19189;SDS011;9727;50.200;19.038;2023-03-31T07:24:40;9.20;;;5.97;;
19189;SDS011;9727;50.200;19.038;2023-03-31T07:27:07;12.53;;;5.40;;
19189;SDS011;9727;50.200;19.038;2023-03-31T07:29:39;9.50;;;5.40;;
19189;SDS011;9727;50.200;19.038;2023-03-31T07:32:06;9.67;;;4.40;;
19189;SDS011;9727;50.200;19.038;2023-03-31T07:34:33;11.13;;;5.30;;
19189;SDS011;9727;50.200;19.038;2023-03-31T07:37:00;8.07;;;4.50;;
19189;SDS011;9727;50.200;19.038;2023-03-31T07:39:28;10.13;;;5.00;;
19189;SDS011;9727;50.200;19.038;2023-03-31T07:41:55;11.10;;;4.97;;
19189;SDS011;9727;50.200;19.038;2023-03-31T07:44:22;9.23;;;4.33;;
19189;SDS011;9727;50.200;19.038;2023-03-31T07:46:48;10.13;;;4.73;;
19189;SDS011;9727;50.200;19.038;2023-03-31T07:49:15;9.03;;;4.23;;
19189;SDS011;9727;50.200;19.038;2023-03-31T07:51:42;9.03;;;3.80;;
19189;SDS011;9727;50.200;19.038;2023-03-31T07:54:08;7.83;;;3.90;;
19189;SDS011;9727;50.200;19.038;2023-03-31T07:56:40;8.53;;;3.97;;
19189;SDS011;9727;50.200;19.038;2023-03-31T07:59:07;8.10;;;3.63;;
19189;SDS011;9727;50.200;19.038;2023-03-31T08:01:34;5.90;;;3.17;;
19189;SDS011;9727;50.200;19.038;2023-03-31T08:04:01;4.77;;;3.00;;
19189;SDS011;9727;50.200;19.038;2023-03-31T08:06:28;7.07;;;3.23;;
19189;SDS011;9727;50.200;19.038;2023-03-31T08:08:54;8.63;;;3.33;;
19189;SDS011;9727;50.200;19.038;2023-03-31T08:11:21;5.37;;;3.43;;
19189;SDS011;9727;50.200;19.038;2023-03-31T08:13:59;4.10;;;3.10;;
19189;SDS011;9727;50.200;19.038;2023-03-31T08:16:25;8.10;;;3.20;;
19189;SDS011;9727;50.200;19.038;2023-03-31T08:18:52;6.17;;;3.20;;
19189;SDS011;9727;50.200;19.038;2023-03-31T08:21:20;7.03;;;3.60;;
19189;SDS011;9727;50.200;19.038;2023-03-31T08:23:47;7.43;;;3.37;;
19189;SDS011;9727;50.200;19.038;2023-03-31T08:26:14;9.90;;;3.67;;
19189;SDS011;9727;50.200;19.038;2023-03-31T08:28:44;8.43;;;3.13;;
19189;SDS011;9727;50.200;19.038;2023-03-31T08:31:14;9.07;;;3.43;;
19189;SDS011;9727;50.200;19.038;2023-03-31T08:33:42;6.63;;;3.23;;
19189;SDS011;9727;50.200;19.038;2023-03-31T08:36:09;10.30;;;3.60;;
19189;SDS011;9727;50.200;19.038;2023-03-31T08:38:36;8.57;;;3.80;;
19189;SDS011;9727;50.200;19.038;2023-03-31T08:41:20;10.17;;;3.40;;
19189;SDS011;9727;50.200;19.038;2023-03-31T08:43:49;7.60;;;3.37;;
19189;SDS011;9727;50.200;19.038;2023-03-31T08:46:18;8.53;;;3.37;;
19189;SDS011;9727;50.200;19.038;2023-03-31T08:48:45;9.03;;;3.63;;
19189;SDS011;9727;50.200;19.038;2023-03-31T08:51:16;5.73;;;2.90;;
19189;SDS011;9727;50.200;19.038;2023-03-31T08:53:46;8.17;;;3.17;;
19189;SDS011;9727;50.200;19.038;2023-03-31T08:56:14;8.80;;;3.20;;
19189;SDS011;9727;50.200;19.038;2023-03-31T08:58:51;10.00;;;2.97;;
19189;SDS011;9727;50.200;19.038;2023-03-31T09:01:23;8.40;;;2.93;;
19189;SDS011;9727;50.200;19.038;2023-03-31T09:03:55;7.70;;;3.03;;
19189;SDS011;9727;50.200;19.038;2023-03-31T09:06:26;7.93;;;3.03;;
19189;SDS011;9727;50.200;19.038;2023-03-31T09:08:56;8.13;;;2.83;;
19189;SDS011;9727;50.200;19.038;2023-03-31T09:11:25;6.00;;;2.80;;
19189;SDS011;9727;50.200;19.038;2023-03-31T09:14:00;5.30;;;2.47;;
19189;SDS011;9727;50.200;19.038;2023-03-31T09:16:36;6.53;;;2.50;;
19189;SDS011;9727;50.200;19.038;2023-03-31T09:19:14;9.63;;;2.87;;
19189;SDS011;9727;50.200;19.038;2023-03-31T09:21:42;7.73;;;3.10;;
19189;SDS011;9727;50.200;19.038;2023-03-31T09:24:10;7.70;;;3.00;;
19189;SDS011;9727;50.200;19.038;2023-03-31T09:26:42;8.83;;;2.90;;
19189;SDS011;9727;50.200;19.038;2023-03-31T09:29:12;6.80;;;2.60;;
19189;SDS011;9727;50.200;19.038;2023-03-31T09:31:44;7.07;;;2.33;;
19189;SDS011;9727;50.200;19.038;2023-03-31T09:34:12;4.10;;;2.07;;
19189;SDS011;9727;50.200;19.038;2023-03-31T09:36:39;7.10;;;2.40;;
19189;SDS011;9727;50.200;19.038;2023-03-31T09:39:07;5.80;;;2.60;;
19189;SDS011;9727;50.200;19.038;2023-03-31T09:41:35;7.47;;;2.50;;
19189;SDS011;9727;50.200;19.038;2023-03-31T09:44:02;4.50;;;2.00;;
19189;SDS011;9727;50.200;19.038;2023-03-31T09:46:29;7.43;;;2.37;;
19189;SDS011;9727;50.200;19.038;2023-03-31T09:48:59;6.40;;;2.47;;
19189;SDS011;9727;50.200;19.038;2023-03-31T09:51:29;5.60;;;2.67;;
19189;SDS011;9727;50.200;19.038;2023-03-31T09:53:58;10.13;;;2.90;;
19189;SDS011;9727;50.200;19.038;2023-03-31T09:56:31;6.57;;;2.77;;
19189;SDS011;9727;50.200;19.038;2023-03-31T09:59:00;8.03;;;2.10;;
19189;SDS011;9727;50.200;19.038;2023-03-31T10:01:26;6.77;;;2.43;;
19189;SDS011;9727;50.200;19.038;2023-03-31T10:03:54;5.53;;;2.50;;
19189;SDS011;9727;50.200;19.038;2023-03-31T10:06:22;5.03;;;2.10;;
19189;SDS011;9727;50.200;19.038;2023-03-31T10:08:50;4.07;;;2.30;;
19189;SDS011;9727;50.200;19.038;2023-03-31T10:11:17;4.63;;;2.47;;
19189;SDS011;9727;50.200;19.038;2023-03-31T10:13:45;9.60;;;2.67;;
19189;SDS011;9727;50.200;19.038;2023-03-31T10:16:13;8.83;;;2.53;;
19189;SDS011;9727;50.200;19.038;2023-03-31T10:18:41;4.53;;;1.77;;
19189;SDS011;9727;50.200;19.038;2023-03-31T10:21:14;5.60;;;1.83;;
19189;SDS011;9727;50.200;19.038;2023-03-31T10:23:46;4.30;;;1.97;;
19189;SDS011;9727;50.200;19.038;2023-03-31T10:26:15;5.20;;;2.00;;
19189;SDS011;9727;50.200;19.038;2023-03-31T10:28:42;8.90;;;2.30;;
19189;SDS011;9727;50.200;19.038;2023-03-31T10:31:09;6.13;;;2.30;;
19189;SDS011;9727;50.200;19.038;2023-03-31T10:33:40;7.43;;;1.93;;
19189;SDS011;9727;50.200;19.038;2023-03-31T10:36:13;7.10;;;2.23;;
19189;SDS011;9727;50.200;19.038;2023-03-31T10:38:41;4.73;;;2.20;;
19189;SDS011;9727;50.200;19.038;2023-03-31T10:41:10;7.00;;;2.63;;
19189;SDS011;9727;50.200;19.038;2023-03-31T10:43:40;5.60;;;2.00;;
19189;SDS011;9727;50.200;19.038;2023-03-31T10:46:08;6.27;;;2.43;;
19189;SDS011;9727;50.200;19.038;2023-03-31T10:48:35;8.17;;;2.87;;
19189;SDS011;9727;50.200;19.038;2023-03-31T10:51:05;7.50;;;2.17;;
19189;SDS011;9727;50.200;19.038;2023-03-31T10:53:39;7.50;;;2.40;;
19189;SDS011;9727;50.200;19.038;2023-03-31T10:56:10;6.27;;;2.20;;
19189;SDS011;9727;50.200;19.038;2023-03-31T10:58:45;6.30;;;2.40;;
19189;SDS011;9727;50.200;19.038;2023-03-31T11:01:31;8.70;;;2.67;;
19189;SDS011;9727;50.200;19.038;2023-03-31T11:07:08;7.10;;;2.50;;
19189;SDS011;9727;50.200;19.038;2023-03-31T11:09:43;6.13;;;2.60;;
19189;SDS011;9727;50.200;19.038;2023-03-31T11:12:17;5.73;;;2.40;;
19189;SDS011;9727;50.200;19.038;2023-03-31T11:14:59;8.63;;;2.83;;
19189;SDS011;9727;50.200;19.038;2023-03-31T11:17:31;5.30;;;2.30;;
19189;SDS011;9727;50.200;19.038;2023-03-31T11:20:16;6.43;;;2.53;;
19189;SDS011;9727;50.200;19.038;2023-03-31T11:22:47;9.77;;;2.80;;
19189;SDS011;9727;50.200;19.038;2023-03-31T11:25:25;5.90;;;2.40;;
19189;SDS011;9727;50.200;19.038;2023-03-31T11:27:56;8.93;;;2.80;;
19189;SDS011;9727;50.200;19.038;2023-03-31T11:30:29;6.37;;;2.47;;
19189;SDS011;9727;50.200;19.038;2023-03-31T11:33:04;4.77;;;2.30;;
19189;SDS011;9727;50.200;19.038;2023-03-31T11:35:42;8.50;;;2.70;;
19189;SDS011;9727;50.200;19.038;2023-03-31T11:38:21;7.37;;;2.60;;
19189;SDS011;9727;50.200;19.038;2023-03-31T11:40:55;6.03;;;2.10;;
19189;SDS011;9727;50.200;19.038;2023-03-31T11:43:25;7.20;;;2.40;;
19189;SDS011;9727;50.200;19.038;2023-03-31T11:45:57;7.53;;;2.40;;
19189;SDS011;9727;50.200;19.038;2023-03-31T11:48:25;4.33;;;2.00;;
19189;SDS011;9727;50.200;19.038;2023-03-31T11:50:54;5.77;;;2.00;;
19189;SDS011;9727;50.200;19.038;2023-03-31T11:53:23;6.37;;;2.00;;
19189;SDS011;9727;50.200;19.038;2023-03-31T11:55:50;2.97;;;1.57;;
19189;SDS011;9727;50.200;19.038;2023-03-31T11:58:20;6.10;;;2.50;;
19189;SDS011;9727;50.200;19.038;2023-03-31T12:00:50;7.37;;;1.97;;
19189;SDS011;9727;50.200;19.038;2023-03-31T12:03:20;4.83;;;1.90;;
19189;SDS011;9727;50.200;19.038;2023-03-31T12:05:48;5.37;;;1.93;;
19189;SDS011;9727;50.200;19.038;2023-03-31T12:08:16;6.80;;;1.80;;
19189;SDS011;9727;50.200;19.038;2023-03-31T12:10:45;7.40;;;2.40;;
19189;SDS011;9727;50.200;19.038;2023-03-31T12:13:28;5.30;;;2.00;;
19189;SDS011;9727;50.200;19.038;2023-03-31T12:15:57;5.07;;;1.80;;
19189;SDS011;9727;50.200;19.038;2023-03-31T12:18:27;5.97;;;1.87;;
19189;SDS011;9727;50.200;19.038;2023-03-31T12:20:59;7.47;;;2.17;;
19189;SDS011;9727;50.200;19.038;2023-03-31T12:23:28;4.87;;;1.80;;
19189;SDS011;9727;50.200;19.038;2023-03-31T12:25:57;13.37;;;1.80;;
19189;SDS011;9727;50.200;19.038;2023-03-31T12:28:26;5.43;;;1.60;;
19189;SDS011;9727;50.200;19.038;2023-03-31T12:30:55;5.90;;;1.60;;
19189;SDS011;9727;50.200;19.038;2023-03-31T12:33:23;5.40;;;2.00;;
19189;SDS011;9727;50.200;19.038;2023-03-31T12:35:57;7.70;;;1.73;;
19189;SDS011;9727;50.200;19.038;2023-03-31T12:38:32;4.53;;;1.50;;
19189;SDS011;9727;50.200;19.038;2023-03-31T12:41:01;3.47;;;1.47;;
19189;SDS011;9727;50.200;19.038;2023-03-31T12:46:31;5.17;;;1.70;;
19189;SDS011;9727;50.200;19.038;2023-03-31T12:49:04;3.73;;;1.33;;
19189;SDS011;9727;50.200;19.038;2023-03-31T12:51:52;6.80;;;2.07;;
19189;SDS011;9727;50.200;19.038;2023-03-31T12:54:27;5.57;;;1.80;;
19189;SDS011;9727;50.200;19.038;2023-03-31T12:57:13;6.13;;;1.73;;
19189;SDS011;9727;50.200;19.038;2023-03-31T12:59:41;6.80;;;1.97;;
19189;SDS011;9727;50.200;19.038;2023-03-31T13:04:53;6.87;;;1.80;;
19189;SDS011;9727;50.200;19.038;2023-03-31T13:10:28;7.20;;;1.80;;
19189;SDS011;9727;50.200;19.038;2023-03-31T13:12:57;5.13;;;1.70;;
19189;SDS011;9727;50.200;19.038;2023-03-31T13:15:25;6.03;;;1.77;;
19189;SDS011;9727;50.200;19.038;2023-03-31T13:17:54;4.10;;;1.60;;
19189;SDS011;9727;50.200;19.038;2023-03-31T13:20:32;6.27;;;1.73;;
19189;SDS011;9727;50.200;19.038;2023-03-31T13:23:03;5.63;;;1.77;;
19189;SDS011;9727;50.200;19.038;2023-03-31T13:25:42;3.33;;;1.37;;
19189;SDS011;9727;50.200;19.038;2023-03-31T13:28:10;5.47;;;1.80;;
19189;SDS011;9727;50.200;19.038;2023-03-31T13:30:47;4.57;;;1.50;;
19189;SDS011;9727;50.200;19.038;2023-03-31T13:33:14;6.07;;;1.20;;
19189;SDS011;9727;50.200;19.038;2023-03-31T13:35:45;1.60;;;1.00;;
19189;SDS011;9727;50.200;19.038;2023-03-31T13:38:13;4.93;;;1.40;;
19189;SDS011;9727;50.200;19.038;2023-03-31T13:40:57;3.30;;;1.30;;
19189;SDS011;9727;50.200;19.038;2023-03-31T13:43:29;2.77;;;1.10;;
19189;SDS011;9727;50.200;19.038;2023-03-31T13:46:04;2.47;;;1.10;;
19189;SDS011;9727;50.200;19.038;2023-03-31T13:48:39;1.60;;;0.90;;
19189;SDS011;9727;50.200;19.038;2023-03-31T13:54:02;2.73;;;1.00;;
19189;SDS011;9727;50.200;19.038;2023-03-31T13:56:41;3.27;;;1.10;;
19189;SDS011;9727;50.200;19.038;2023-03-31T13:59:14;3.27;;;1.03;;
19189;SDS011;9727;50.200;19.038;2023-03-31T14:01:49;4.07;;;1.07;;
19189;SDS011;9727;50.200;19.038;2023-03-31T14:04:35;5.93;;;1.30;;
19189;SDS011;9727;50.200;19.038;2023-03-31T14:07:06;7.03;;;1.57;;
19189;SDS011;9727;50.200;19.038;2023-03-31T14:09:33;6.83;;;1.50;;
19189;SDS011;9727;50.200;19.038;2023-03-31T14:12:17;3.83;;;1.30;;
19189;SDS011;9727;50.200;19.038;2023-03-31T14:14:44;6.47;;;1.50;;
19189;SDS011;9727;50.200;19.038;2023-03-31T14:17:11;6.93;;;1.40;;
19189;SDS011;9727;50.200;19.038;2023-03-31T14:19:45;11.57;;;1.87;;
19189;SDS011;9727;50.200;19.038;2023-03-31T14:22:18;8.93;;;2.07;;
19189;SDS011;9727;50.200;19.038;2023-03-31T14:24:49;5.73;;;1.30;;
19189;SDS011;9727;50.200;19.038;2023-03-31T14:27:20;3.27;;;1.30;;
19189;SDS011;9727;50.200;19.038;2023-03-31T14:29:51;4.93;;;1.67;;
19189;SDS011;9727;50.200;19.038;2023-03-31T14:32:23;3.33;;;1.63;;
19189;SDS011;9727;50.200;19.038;2023-03-31T14:34:55;5.70;;;1.60;;
19189;SDS011;9727;50.200;19.038;2023-03-31T14:37:25;6.53;;;2.00;;
19189;SDS011;9727;50.200;19.038;2023-03-31T14:39:53;6.33;;;1.63;;
19189;SDS011;9727;50.200;19.038;2023-03-31T14:42:23;7.67;;;2.20;;
19189;SDS011;9727;50.200;19.038;2023-03-31T14:44:54;9.13;;;1.80;;
19189;SDS011;9727;50.200;19.038;2023-03-31T14:47:21;4.20;;;1.50;;
19189;SDS011;9727;50.200;19.038;2023-03-31T14:49:57;4.10;;;1.60;;
19189;SDS011;9727;50.200;19.038;2023-03-31T14:52:27;5.77;;;2.13;;
19189;SDS011;9727;50.200;19.038;2023-03-31T14:54:54;6.60;;;1.40;;
19189;SDS011;9727;50.200;19.038;2023-03-31T14:57:24;4.67;;;1.63;;
19189;SDS011;9727;50.200;19.038;2023-03-31T14:59:53;7.53;;;1.87;;
19189;SDS011;9727;50.200;19.038;2023-03-31T15:02:22;5.47;;;2.40;;
19189;SDS011;9727;50.200;19.038;2023-03-31T15:04:54;7.80;;;2.50;;
19189;SDS011;9727;50.200;19.038;2023-03-31T15:07:22;5.93;;;2.00;;
19189;SDS011;9727;50.200;19.038;2023-03-31T15:09:49;7.27;;;2.10;;
19189;SDS011;9727;50.200;19.038;2023-03-31T15:12:17;6.23;;;2.20;;
19189;SDS011;9727;50.200;19.038;2023-03-31T15:14:49;5.97;;;3.20;;